Time;durP1;ratioP1;P1;durP2;ratioP2;P2;SDS_P1;SDS_P2;PMS_P1;PMS_P2;Temp;Humidity;BMP_temperature;BMP_pressure;BME280_temperature;BME280_humidity;BME280_pressure;Samples;Min_cycle;Max_cycle;Signal;HPM_P1;HPM_P2
2022/06/08 00:00:45;;;;;;;12.50;7.88;;;12.50;99.90;;;;;;5091178;28;20441;-46
2022/06/08 00:03:15;;;;;;;7.85;6.90;;;12.50;99.90;;;;;;5083857;28;20071;-46
2022/06/08 00:05:41;;;;;;;8.77;7.22;;;12.50;99.90;;;;;;5071958;28;20119;-46
2022/06/08 00:08:07;;;;;;;9.63;8.70;;;12.50;99.90;;;;;;5088600;28;20127;-46
2022/06/08 00:10:33;;;;;;;13.95;9.75;;;12.40;99.90;;;;;;5077804;28;20554;-45
2022/06/08 00:12:58;;;;;;;11.57;9.18;;;12.40;99.90;;;;;;5082190;28;20048;-47
2022/06/08 00:15:25;;;;;;;12.20;10.03;;;12.50;99.90;;;;;;5073686;28;20028;-45
2022/06/08 00:17:51;;;;;;;11.73;10.45;;;12.40;99.90;;;;;;5087822;28;20048;-47
2022/06/08 00:20:17;;;;;;;12.35;10.10;;;12.40;99.90;;;;;;5089832;28;20584;-47
2022/06/08 00:22:44;;;;;;;14.55;10.05;;;12.50;99.90;;;;;;5085457;28;20119;-47
2022/06/08 00:25:10;;;;;;;14.32;9.32;;;12.40;99.90;;;;;;5085084;28;20036;-46
2022/06/08 00:27:36;;;;;;;12.93;9.98;;;12.50;99.90;;;;;;5080690;28;20130;-46
2022/06/08 00:30:04;;;;;;;13.68;11.32;;;12.50;99.90;;;;;;5073821;28;20474;-46
2022/06/08 00:32:30;;;;;;;15.35;11.82;;;12.50;99.90;;;;;;5072740;28;20040;-45
2022/06/08 00:34:56;;;;;;;13.57;11.17;;;12.50;99.90;;;;;;5088971;28;20040;-46
2022/06/08 00:37:23;;;;;;;13.23;11.07;;;12.50;99.90;;;;;;5087963;28;20286;-46
2022/06/08 00:39:49;;;;;;;13.75;11.18;;;12.50;99.90;;;;;;5073622;28;20044;-45
2022/06/08 00:42:16;;;;;;;15.77;11.43;;;12.50;99.90;;;;;;5073660;28;20047;-46
2022/06/08 00:44:49;;;;;;;16.85;13.07;;;12.60;99.90;;;;;;5085442;28;20493;-46
2022/06/08 00:47:24;;;;;;;14.00;10.98;;;12.60;99.90;;;;;;5072903;28;20052;-46
2022/06/08 00:49:57;;;;;;;12.85;11.35;;;12.60;99.90;;;;;;5072230;28;20039;-46
2022/06/08 00:52:24;;;;;;;12.60;10.40;;;12.60;99.90;;;;;;5078041;28;20032;-46
2022/06/08 00:54:57;;;;;;;11.82;10.63;;;12.70;99.90;;;;;;5088781;28;20107;-47
2022/06/08 00:57:45;;;;;;;12.95;11.07;;;12.60;99.90;;;;;;5088560;28;20083;-47
2022/06/08 01:00:15;;;;;;;13.70;11.45;;;12.60;99.90;;;;;;5085911;28;20048;-45
2022/06/08 01:02:41;;;;;;;14.35;11.07;;;12.60;99.90;;;;;;5073398;28;20036;-47
2022/06/08 01:05:23;;;;;;;15.02;11.95;;;12.60;99.90;;;;;;5086713;28;20105;-46
2022/06/08 01:07:51;;;;;;;18.67;11.30;;;12.60;99.90;;;;;;5073398;28;20152;-46
2022/06/08 01:10:25;;;;;;;14.90;12.38;;;12.60;99.90;;;;;;5084834;28;20063;-46
2022/06/08 01:12:51;;;;;;;15.10;11.57;;;12.60;99.90;;;;;;5072672;28;20485;-48
2022/06/08 01:15:22;;;;;;;15.15;12.60;;;12.60;99.90;;;;;;5076198;28;20101;-45
2022/06/08 01:17:48;;;;;;;16.52;14.13;;;12.60;99.90;;;;;;5087025;28;20165;-47
2022/06/08 01:20:14;;;;;;;23.50;16.17;;;12.60;99.90;;;;;;5079918;28;20472;-47
2022/06/08 01:22:40;;;;;;;25.15;17.10;;;12.70;99.90;;;;;;5085223;28;20043;-46
2022/06/08 01:25:09;;;;;;;22.67;15.05;;;12.70;99.90;;;;;;5076720;28;20040;-46
2022/06/08 01:27:56;;;;;;;20.90;15.80;;;12.70;99.90;;;;;;5085359;28;20511;-46
2022/06/08 01:30:37;;;;;;;;;;;12.70;99.90;;;;;;5079550;28;20501;-46
2022/06/08 01:33:30;;;;;;;24.05;17.20;;;12.70;99.90;;;;;;5076779;28;19926;-48
2022/06/08 01:36:27;;;;;;;22.48;15.50;;;12.70;99.90;;;;;;5073818;28;20389;-47
2022/06/08 01:38:59;;;;;;;18.42;15.35;;;12.70;99.90;;;;;;5087540;28;20552;-46
2022/06/08 01:41:42;;;;;;;19.95;16.15;;;12.70;99.90;;;;;;5077847;28;20431;-47
2022/06/08 01:44:17;;;;;;;19.73;16.13;;;12.80;99.90;;;;;;5074169;28;20105;-47
2022/06/08 01:46:55;;;;;;;24.70;17.45;;;12.80;99.90;;;;;;5082547;28;20037;-47
2022/06/08 01:49:23;;;;;;;24.83;16.73;;;12.80;99.90;;;;;;5080232;28;20032;-46
2022/06/08 01:52:13;;;;;;;22.38;14.93;;;12.90;99.90;;;;;;5087858;28;20078;-46
2022/06/08 01:55:01;;;;;;;19.58;14.65;;;12.90;99.90;;;;;;5077478;28;20569;-47
2022/06/08 01:57:57;;;;;;;18.90;15.40;;;12.90;99.90;;;;;;5082109;28;20036;-46
2022/06/08 02:00:35;;;;;;;20.02;15.57;;;12.90;99.90;;;;;;5077698;28;20047;-47
2022/06/08 02:03:13;;;;;;;19.08;14.77;;;13.00;99.90;;;;;;5085029;28;20048;-47
2022/06/08 02:05:42;;;;;;;22.75;15.38;;;13.00;99.90;;;;;;5072721;28;20044;-47
2022/06/08 02:08:24;;;;;;;21.75;15.50;;;13.00;99.90;;;;;;5084788;28;20036;-47
2022/06/08 02:11:14;;;;;;;16.63;14.50;;;13.00;99.90;;;;;;5077407;28;20043;-47
2022/06/08 02:13:49;;;;;;;17.00;14.77;;;13.00;99.90;;;;;;5072322;28;20078;-47
2022/06/08 02:16:28;;;;;;;22.88;15.93;;;13.00;99.90;;;;;;5083337;28;20079;-46
2022/06/08 02:19:03;;;;;;;19.38;14.32;;;13.10;99.90;;;;;;5082917;28;20044;-47
2022/06/08 02:21:35;;;;;;;21.80;16.10;;;13.00;99.90;;;;;;5079741;28;20044;-47
2022/06/08 02:24:06;;;;;;;17.90;14.13;;;13.10;99.90;;;;;;5087891;28;20051;-49
2022/06/08 02:26:38;;;;;;;18.85;15.38;;;13.10;99.90;;;;;;5073548;28;20029;-47
2022/06/08 02:29:21;;;;;;;20.80;15.32;;;13.10;99.90;;;;;;5088637;28;20042;-47
2022/06/08 02:31:55;;;;;;;17.17;15.38;;;13.10;99.90;;;;;;5086901;28;20047;-50
2022/06/08 02:34:28;;;;;;;20.92;15.05;;;13.00;99.90;;;;;;5072362;28;20037;-46
2022/06/08 02:37:01;;;;;;;18.40;15.25;;;13.10;99.90;;;;;;5081977;28;20052;-46
2022/06/08 02:39:36;;;;;;;16.58;13.57;;;13.00;99.90;;;;;;5075164;28;20036;-47
2022/06/08 02:42:17;;;;;;;18.52;14.05;;;13.00;99.90;;;;;;5075034;28;20047;-47
2022/06/08 02:44:45;;;;;;;17.52;14.20;;;13.00;99.90;;;;;;5087866;28;20044;-47
2022/06/08 02:47:30;;;;;;;20.23;14.32;;;13.00;99.90;;;;;;5072906;28;20037;-47
2022/06/08 02:50:16;;;;;;;20.30;15.20;;;13.10;99.90;;;;;;5083351;28;20037;-48
2022/06/08 02:52:44;;;;;;;21.17;15.07;;;13.10;99.90;;;;;;5079005;28;20111;-47
2022/06/08 02:55:21;;;;;;;18.73;14.60;;;13.10;99.90;;;;;;5070734;28;20044;-46
2022/06/08 02:57:46;;;;;;;19.35;15.65;;;13.10;99.90;;;;;;5088295;28;20052;-49
2022/06/08 03:00:17;;;;;;;19.90;16.33;;;13.10;99.90;;;;;;5075051;28;20525;-47
2022/06/08 03:02:48;;;;;;;17.27;14.95;;;13.10;99.90;;;;;;5073640;28;20116;-47
2022/06/08 03:05:25;;;;;;;21.00;16.45;;;13.10;99.90;;;;;;5084802;28;20040;-48
2022/06/08 03:07:59;;;;;;;;;;;13.10;99.90;;;;;;5075569;28;20075;-48
2022/06/08 03:10:27;;;;;;;21.60;16.33;;;13.10;99.90;;;;;;5085652;28;20417;-46
2022/06/08 03:13:26;;;;;;;22.75;16.08;;;13.10;99.90;;;;;;5071000;28;20401;-48
2022/06/08 03:15:57;;;;;;;20.17;14.25;;;13.00;99.90;;;;;;5085643;28;20054;-47
2022/06/08 03:18:24;;;;;;;20.92;15.88;;;13.00;99.90;;;;;;5076284;28;20520;-47
2022/06/08 03:20:49;;;;;;;20.50;15.77;;;13.00;99.90;;;;;;5086078;28;20314;-46
2022/06/08 03:23:15;;;;;;;20.58;16.67;;;13.00;99.90;;;;;;5071612;28;20036;-46
2022/06/08 03:25:41;;;;;;;22.13;15.93;;;13.00;99.90;;;;;;5076838;28;20139;-49
2022/06/08 03:28:07;;;;;;;21.20;16.23;;;13.00;99.90;;;;;;5082464;28;20044;-46
2022/06/08 03:30:33;;;;;;;23.25;17.85;;;13.00;99.90;;;;;;5088142;28;20509;-46
2022/06/08 03:32:59;;;;;;;23.77;16.60;;;13.00;99.90;;;;;;5072725;28;20047;-45
2022/06/08 03:35:24;;;;;;;24.20;17.88;;;13.00;99.90;;;;;;5087774;28;20040;-46
2022/06/08 03:37:50;;;;;;;24.95;17.85;;;13.00;99.90;;;;;;5088000;28;20036;-47
2022/06/08 03:40:16;;;;;;;26.30;18.33;;;13.00;99.90;;;;;;5070882;28;20043;-46
2022/06/08 03:42:42;;;;;;;23.27;17.38;;;13.00;99.90;;;;;;5089628;28;20044;-48
2022/06/08 03:45:09;;;;;;;21.77;17.65;;;13.00;99.90;;;;;;5082031;28;20043;-47
2022/06/08 03:47:45;;;;;;;27.25;17.90;;;13.10;99.90;;;;;;5076540;28;20042;-47
2022/06/08 03:50:14;;;;;;;23.80;18.27;;;13.10;99.90;;;;;;5086167;28;20497;-46
2022/06/08 03:52:43;;;;;;;25.40;18.85;;;13.00;99.90;;;;;;5074148;28;20036;-48
2022/06/08 03:55:11;;;;;;;25.48;18.08;;;13.10;99.90;;;;;;5087470;28;20439;-47
2022/06/08 03:57:38;;;;;;;25.10;17.95;;;13.10;99.90;;;;;;5088783;28;20040;-45
2022/06/08 04:00:05;;;;;;;22.25;17.17;;;13.10;99.90;;;;;;5084908;28;20452;-46
2022/06/08 04:02:32;;;;;;;28.45;18.92;;;13.10;99.90;;;;;;5083619;28;20043;-46
2022/06/08 04:04:57;;;;;;;24.27;17.65;;;13.20;99.90;;;;;;5078539;28;20464;-46
2022/06/08 04:07:23;;;;;;;23.73;18.40;;;13.20;99.90;;;;;;5075108;28;20041;-46
2022/06/08 04:09:49;;;;;;;32.17;18.88;;;13.20;99.90;;;;;;5082957;28;20066;-47
2022/06/08 04:12:16;;;;;;;29.40;20.65;;;13.20;99.90;;;;;;5075278;28;20489;-46
2022/06/08 04:14:42;;;;;;;25.67;18.10;;;13.30;99.90;;;;;;5085747;28;20047;-46
2022/06/08 04:17:07;;;;;;;26.63;18.02;;;13.30;99.90;;;;;;5080014;28;20035;-46
2022/06/08 04:19:33;;;;;;;24.23;18.60;;;13.30;99.90;;;;;;5092827;28;20085;-46
2022/06/08 04:21:59;;;;;;;24.60;19.20;;;13.30;99.90;;;;;;5077410;28;20369;-45
2022/06/08 04:24:24;;;;;;;23.38;17.58;;;13.40;99.90;;;;;;5073038;28;20401;-44
2022/06/08 04:26:51;;;;;;;25.65;19.35;;;13.40;99.90;;;;;;5086001;28;20047;-45
2022/06/08 04:29:18;;;;;;;23.17;18.67;;;13.40;99.90;;;;;;5090587;28;20040;-46
2022/06/08 04:31:43;;;;;;;25.73;18.55;;;13.40;99.90;;;;;;5087664;28;20543;-44
2022/06/08 04:34:11;;;;;;;26.45;19.00;;;13.50;99.90;;;;;;5085507;28;20029;-46
2022/06/08 04:36:38;;;;;;;29.10;20.83;;;13.50;99.90;;;;;;5081388;28;20428;-45
2022/06/08 04:39:06;;;;;;;27.40;19.27;;;13.60;99.90;;;;;;5084488;28;20043;-48
2022/06/08 04:41:33;;;;;;;27.02;18.88;;;13.60;99.90;;;;;;5082074;28;20043;-46
2022/06/08 04:43:58;;;;;;;25.00;17.35;;;13.60;99.90;;;;;;5089045;28;20508;-45
2022/06/08 04:46:25;;;;;;;27.20;20.17;;;13.60;99.90;;;;;;5092184;28;20075;-46
2022/06/08 04:48:50;;;;;;;26.00;19.05;;;13.70;99.90;;;;;;5090437;28;20072;-45
2022/06/08 04:51:17;;;;;;;29.13;21.10;;;13.70;99.90;;;;;;5081302;28;20091;-47
2022/06/08 04:53:44;;;;;;;30.80;21.33;;;13.70;99.90;;;;;;5071798;28;20134;-45
2022/06/08 04:56:10;;;;;;;25.83;20.38;;;13.80;99.90;;;;;;5074622;28;20047;-46
2022/06/08 04:58:35;;;;;;;25.10;19.25;;;13.80;99.90;;;;;;5090714;28;20048;-46
2022/06/08 05:01:02;;;;;;;25.17;20.88;;;13.90;99.90;;;;;;5089951;28;20047;-46
2022/06/08 05:03:30;;;;;;;26.35;19.40;;;13.90;99.90;;;;;;5075632;28;20033;-46
2022/06/08 05:05:57;;;;;;;27.95;20.63;;;14.00;99.90;;;;;;5081039;28;20051;-46
2022/06/08 05:08:23;;;;;;;29.95;21.20;;;14.00;99.90;;;;;;5079605;28;20144;-46
2022/06/08 05:10:50;;;;;;;27.27;19.92;;;14.00;99.90;;;;;;5084373;28;20036;-46
2022/06/08 05:13:17;;;;;;;27.50;20.88;;;14.10;99.90;;;;;;5087957;28;20107;-45
2022/06/08 05:15:44;;;;;;;32.95;23.10;;;14.10;99.90;;;;;;5082798;28;20128;-45
2022/06/08 05:18:11;;;;;;;29.48;21.55;;;14.20;99.90;;;;;;5078865;28;20048;-46
2022/06/08 05:20:39;;;;;;;26.70;21.77;;;14.20;99.90;;;;;;5076954;28;20145;-46
2022/06/08 05:23:11;;;;;;;29.38;22.17;;;14.20;99.90;;;;;;5088549;28;20531;-45
2022/06/08 05:25:39;;;;;;;33.33;22.75;;;14.30;99.90;;;;;;5076028;28;20040;-46
2022/06/08 05:28:06;;;;;;;33.67;24.02;;;14.30;99.90;;;;;;5081616;28;20048;-46
2022/06/08 05:30:32;;;;;;;30.52;22.95;;;14.40;99.90;;;;;;5072780;28;20420;-46
2022/06/08 05:32:59;;;;;;;32.17;23.45;;;14.40;99.90;;;;;;5082048;28;20107;-47
2022/06/08 05:35:26;;;;;;;33.80;24.60;;;14.40;99.90;;;;;;5071745;28;20071;-46
2022/06/08 05:37:52;;;;;;;28.27;22.17;;;14.50;99.90;;;;;;5073172;28;20486;-46
2022/06/08 05:40:18;;;;;;;37.25;23.80;;;14.50;99.90;;;;;;5072631;28;20503;-46
2022/06/08 05:42:44;;;;;;;29.65;23.23;;;14.60;99.90;;;;;;5073696;28;20048;-46
2022/06/08 05:45:16;;;;;;;31.50;24.20;;;14.60;99.90;;;;;;5072654;28;20044;-46
2022/06/08 05:47:41;;;;;;;33.50;23.20;;;14.60;99.90;;;;;;5078443;28;20290;-46
2022/06/08 05:50:07;;;;;;;27.80;21.57;;;14.70;99.90;;;;;;5084350;28;20040;-46
2022/06/08 05:52:33;;;;;;;31.08;22.42;;;14.70;99.90;;;;;;5076297;28;20286;-46
2022/06/08 05:54:59;;;;;;;36.13;22.48;;;14.80;99.90;;;;;;5088784;28;20048;-46
2022/06/08 05:57:25;;;;;;;31.05;22.30;;;14.80;99.90;;;;;;5088995;28;20124;-46
2022/06/08 05:59:50;;;;;;;28.00;22.33;;;14.90;99.90;;;;;;5090940;28;20205;-47
2022/06/08 06:02:16;;;;;;;30.67;23.52;;;15.00;99.90;;;;;;5079007;28;20085;-45
2022/06/08 06:04:42;;;;;;;31.88;23.77;;;15.10;99.90;;;;;;5089889;28;20032;-47
2022/06/08 06:07:08;;;;;;;30.20;23.52;;;15.10;99.90;;;;;;5079204;28;20503;-46
2022/06/08 06:09:34;;;;;;;27.63;22.20;;;15.30;99.90;;;;;;5077039;28;20036;-46
2022/06/08 06:12:00;;;;;;;27.02;22.27;;;15.40;99.90;;;;;;5089696;28;20074;-46
2022/06/08 06:14:26;;;;;;;26.42;20.85;;;15.50;99.90;;;;;;5088577;28;20401;-47
2022/06/08 06:16:51;;;;;;;27.85;19.75;;;15.50;99.90;;;;;;5088811;28;20079;-47
2022/06/08 06:19:17;;;;;;;25.35;19.92;;;15.60;99.90;;;;;;5090860;28;20036;-46
2022/06/08 06:21:43;;;;;;;25.65;20.45;;;15.80;99.90;;;;;;5090087;28;20043;-46
2022/06/08 06:24:08;;;;;;;23.95;19.67;;;15.80;99.90;;;;;;5087628;28;20062;-48
2022/06/08 06:26:34;;;;;;;23.67;20.70;;;15.90;99.90;;;;;;5090359;28;20140;-46
2022/06/08 06:28:59;;;;;;;27.88;21.00;;;16.10;99.90;;;;;;5087211;28;20044;-46
2022/06/08 06:31:47;;;;;;;24.85;19.00;;;16.20;99.90;;;;;;5089480;28;20040;-47
2022/06/08 06:34:13;;;;;;;;;;;16.30;99.90;;;;;;5089964;28;20115;-46
2022/06/08 06:36:39;;;;;;;24.02;17.02;;;16.40;99.90;;;;;;5090321;28;20038;-47
2022/06/08 06:39:05;;;;;;;18.73;16.85;;;16.50;99.90;;;;;;5085482;28;20074;-47
2022/06/08 06:41:31;;;;;;;20.45;17.20;;;16.60;99.90;;;;;;5073905;28;20489;-45
2022/06/08 06:43:56;;;;;;;24.02;17.33;;;16.60;99.90;;;;;;5088745;28;20036;-46
2022/06/08 06:46:22;;;;;;;20.33;16.70;;;16.70;99.90;;;;;;5083418;28;20070;-46
2022/06/08 06:48:47;;;;;;;21.80;16.75;;;16.80;99.90;;;;;;5080338;28;20044;-46
2022/06/08 06:51:13;;;;;;;22.52;15.55;;;16.90;99.90;;;;;;5089034;28;20086;-46
2022/06/08 06:53:39;;;;;;;18.52;15.57;;;16.90;99.90;;;;;;5069081;28;20036;-47
2022/06/08 06:56:06;;;;;;;20.17;16.20;;;16.90;99.90;;;;;;5068724;28;20059;-47
2022/06/08 06:58:32;;;;;;;20.73;17.15;;;16.90;99.90;;;;;;5068453;28;20490;-46
2022/06/08 07:00:58;;;;;;;19.00;17.00;;;17.00;99.90;;;;;;5070235;28;20036;-46
2022/06/08 07:03:23;;;;;;;20.63;16.27;;;17.10;99.90;;;;;;5068743;28;20520;-46
2022/06/08 07:05:49;;;;;;;20.88;16.33;;;17.10;99.90;;;;;;5085208;28;20047;-47
2022/06/08 07:08:15;;;;;;;;;;;17.10;99.90;;;;;;5090527;28;20043;-47
2022/06/08 07:10:43;;;;;;;16.38;14.68;;;17.20;99.90;;;;;;5089882;28;19920;-46
2022/06/08 07:13:09;;;;;;;18.17;14.32;;;17.20;99.90;;;;;;5087220;28;20484;-45
2022/06/08 07:15:35;;;;;;;16.13;14.43;;;17.30;99.90;;;;;;5089185;28;20047;-46
2022/06/08 07:18:00;;;;;;;15.38;13.77;;;17.30;99.90;;;;;;5082995;28;20039;-46
2022/06/08 07:20:26;;;;;;;18.63;13.75;;;17.40;99.90;;;;;;5076065;28;20540;-47
2022/06/08 07:22:51;;;;;;;17.75;13.80;;;17.40;99.90;;;;;;5072345;28;20040;-46
2022/06/08 07:25:18;;;;;;;17.65;14.35;;;17.50;99.90;;;;;;5073410;28;20052;-47
2022/06/08 07:27:46;;;;;;;17.77;15.90;;;17.60;99.90;;;;;;5072995;28;20040;-46
2022/06/08 07:30:14;;;;;;;15.95;14.07;;;17.60;99.90;;;;;;5072272;28;20165;-47
2022/06/08 07:32:39;;;;;;;15.75;12.98;;;17.70;99.90;;;;;;5071833;28;20045;-47
2022/06/08 07:35:06;;;;;;;15.07;12.98;;;17.80;99.90;;;;;;5072815;28;20099;-46
2022/06/08 07:37:32;;;;;;;13.48;11.98;;;17.80;99.90;;;;;;5073380;28;20040;-47
2022/06/08 07:39:57;;;;;;;14.50;13.00;;;17.80;99.90;;;;;;5073574;28;20124;-46
2022/06/08 07:42:23;;;;;;;14.38;11.73;;;17.90;99.90;;;;;;5089598;28;20509;-47
2022/06/08 07:44:49;;;;;;;16.02;12.27;;;18.00;99.90;;;;;;5092453;28;20048;-47
2022/06/08 07:47:15;;;;;;;9.93;7.38;;;18.10;99.90;;;;;;5091980;28;20474;-47
2022/06/08 07:49:41;;;;;;;12.70;10.13;;;18.20;99.90;;;;;;5092053;28;20032;-47
2022/06/08 07:52:13;;;;;;;10.68;8.43;;;18.20;99.90;;;;;;5073708;28;20362;-46
2022/06/08 07:54:40;;;;;;;12.15;8.90;;;18.20;99.90;;;;;;5083389;28;20402;-46
2022/06/08 07:57:06;;;;;;;13.95;8.63;;;18.20;99.90;;;;;;5073908;28;20171;-46
2022/06/08 07:59:36;;;;;;;7.88;6.55;;;18.20;99.90;;;;;;5080810;28;20029;-46
2022/06/08 08:02:02;;;;;;;10.63;7.78;;;18.20;99.90;;;;;;5072245;28;20087;-46
2022/06/08 08:04:28;;;;;;;9.27;7.25;;;18.30;99.90;;;;;;5073296;28;20045;-46
2022/06/08 08:06:53;;;;;;;12.68;8.25;;;18.30;99.90;;;;;;5073413;28;20430;-47
2022/06/08 08:09:22;;;;;;;9.77;8.77;;;18.40;99.90;;;;;;5088787;28;20043;-47
2022/06/08 08:11:50;;;;;;;9.85;7.78;;;18.50;99.90;;;;;;5092447;28;20392;-47
2022/06/08 08:14:21;;;;;;;8.70;7.68;;;18.60;99.90;;;;;;5090171;28;20517;-47
2022/06/08 08:16:48;;;;;;;8.20;7.40;;;18.70;99.90;;;;;;5092181;28;20048;-47
2022/06/08 08:19:19;;;;;;;9.38;7.70;;;18.70;99.90;;;;;;5082643;28;20063;-47
2022/06/08 08:21:46;;;;;;;5.18;4.68;;;18.70;99.90;;;;;;5091823;28;20047;-47
2022/06/08 08:24:12;;;;;;;5.25;4.25;;;18.80;99.90;;;;;;5090199;28;20048;-47
2022/06/08 08:26:38;;;;;;;6.30;5.45;;;18.80;99.90;;;;;;5092301;28;20036;-48
2022/06/08 08:29:04;;;;;;;7.93;3.80;;;18.80;99.90;;;;;;5087447;28;20048;-46
2022/06/08 08:31:29;;;;;;;;;;;18.70;99.90;;;;;;5072268;28;20048;-47
2022/06/08 08:33:55;;;;;;;4.95;4.20;;;18.70;99.90;;;;;;5071070;28;19916;-46
2022/06/08 08:36:21;;;;;;;6.32;5.15;;;18.70;99.90;;;;;;5073062;28;20553;-47
2022/06/08 08:38:47;;;;;;;7.97;5.15;;;18.70;99.90;;;;;;5070536;28;20143;-46
2022/06/08 08:44:04;;;;;;;6.25;4.68;;;18.80;99.90;;;;;;5070934;28;20080;-47
2022/06/08 08:46:32;;;;;;;;;;;18.90;99.90;;;;;;5073744;28;20092;-45
2022/06/08 08:49:01;;;;;;;6.80;3.65;;;18.90;99.90;;;;;;5071556;28;19920;-47
2022/06/08 08:51:34;;;;;;;3.45;2.58;;;19.10;99.90;;;;;;5082287;28;20044;-47
2022/06/08 08:54:30;;;;;;;3.63;3.15;;;19.30;99.90;;;;;;5079029;28;20731;-48
2022/06/08 08:57:40;;;;;;;3.88;2.92;;;19.40;99.90;;;;;;5077108;28;20568;-46
2022/06/08 09:00:18;;;;;;;3.47;2.15;;;19.50;99.90;;;;;;5056544;28;20052;-47
2022/06/08 09:05:29;;;;;;;5.60;2.13;;;19.50;99.90;;;;;;5088720;28;20036;-46
2022/06/08 09:07:58;;;;;;;5.55;1.33;;;19.50;99.90;;;;;;5085867;28;20052;-47
2022/06/08 09:10:25;;;;;;;3.47;1.00;;;19.50;99.90;;;;;;5084817;28;20494;-46
2022/06/08 09:12:52;;;;;;;3.33;1.98;;;19.50;99.90;;;;;;5083690;28;20036;-48
2022/06/08 09:15:57;;;;;;;2.30;1.33;;;19.70;99.90;;;;;;5089169;28;20385;-46
2022/06/08 09:18:41;;;;;;;1.15;1.02;;;19.70;99.90;;;;;;5071032;28;20503;-47
2022/06/08 09:21:27;;;;;;;1.25;1.08;;;19.70;99.90;;;;;;5080021;28;20040;-47
2022/06/08 09:24:18;;;;;;;2.72;1.27;;;19.70;99.90;;;;;;5073266;28;20046;-47
2022/06/08 09:26:44;;;;;;;3.03;1.90;;;19.60;99.90;;;;;;5073801;28;20067;-47
2022/06/08 09:29:22;;;;;;;3.95;1.60;;;19.60;99.90;;;;;;5074799;28;20389;-47
2022/06/08 09:31:49;;;;;;;8.05;2.63;;;19.50;99.90;;;;;;5077594;28;20423;-46
2022/06/08 09:34:36;;;;;;;4.10;2.58;;;19.50;99.90;;;;;;5069327;28;20055;-46
2022/06/08 09:37:07;;;;;;;3.77;2.17;;;19.50;99.90;;;;;;5080720;28;20063;-46
2022/06/08 09:39:34;;;;;;;5.07;2.28;;;19.50;99.90;;;;;;5076516;28;20040;-47
2022/06/08 09:42:24;;;;;;;3.60;1.30;;;19.60;99.90;;;;;;5084770;28;20156;-46
2022/06/08 09:45:12;;;;;;;3.70;1.23;;;19.70;99.90;;;;;;5078477;28;20036;-47
2022/06/08 09:51:26;;;;;;;6.80;2.85;;;20.00;99.90;;;;;;5072726;28;20501;-47
2022/06/08 09:54:03;;;;;;;5.88;2.63;;;20.10;99.90;;;;;;5080183;28;20040;-47
2022/06/08 09:57:02;;;;;;;2.42;1.95;;;20.00;99.90;;;;;;5089196;28;20085;-47
2022/06/08 09:59:28;;;;;;;4.85;2.15;;;19.90;99.90;;;;;;5080269;28;20107;-47
2022/06/08 10:02:20;;;;;;;5.93;1.98;;;19.90;99.90;;;;;;5085461;28;20126;-46
2022/06/08 10:05:16;;;;;;;3.50;2.67;;;20.00;99.90;;;;;;5087474;28;20051;-46
2022/06/08 10:08:07;;;;;;;4.22;1.92;;;20.00;99.90;;;;;;5085262;28;20173;-47
2022/06/08 10:10:38;;;;;;;4.60;1.58;;;20.10;99.90;;;;;;5074290;28;20033;-46
2022/06/08 10:13:19;;;;;;;2.55;1.73;;;20.10;99.90;;;;;;5084546;28;20543;-48
2022/06/08 10:16:14;;;;;;;4.03;2.70;;;20.20;99.90;;;;;;5088814;28;20036;-46
2022/06/08 10:18:48;;;;;;;3.20;2.20;;;20.20;99.90;;;;;;5086062;28;20047;-47
2022/06/08 10:21:26;;;;;;;3.05;1.70;;;20.30;99.90;;;;;;5086057;28;20111;-46
2022/06/08 10:24:05;;;;;;;3.28;2.25;;;20.30;99.90;;;;;;5069127;28;20042;-47
2022/06/08 10:27:08;;;;;;;4.18;2.15;;;20.30;99.90;;;;;;5082746;28;20040;-47
2022/06/08 10:29:42;;;;;;;4.05;1.55;;;20.40;99.90;;;;;;5063365;28;20094;-46
2022/06/08 10:32:14;;;;;;;6.15;2.97;;;20.60;99.90;;;;;;5075241;28;20513;-48
2022/06/08 10:34:40;;;;;;;4.90;2.45;;;20.70;99.90;;;;;;5085394;28;20047;-47
2022/06/08 10:37:18;;;;;;;7.93;3.15;;;20.80;99.90;;;;;;5088643;28;20036;-48
2022/06/08 10:39:47;;;;;;;4.28;2.78;;;20.70;99.90;;;;;;5088972;28;20397;-47
2022/06/08 10:45:22;;;;;;;4.82;2.67;;;20.90;99.90;;;;;;5088331;28;20040;-48
2022/06/08 10:48:17;;;;;;;4.05;3.13;;;21.00;99.90;;;;;;5070557;28;20048;-48
2022/06/08 10:50:48;;;;;;;4.10;2.88;;;21.00;99.90;;;;;;5074036;28;20040;-47
2022/06/08 10:56:28;;;;;;;2.28;1.95;;;20.90;99.90;;;;;;5079086;28;20040;-48
2022/06/08 10:59:03;;;;;;;6.35;1.98;;;20.90;99.90;;;;;;5076012;28;20097;-46
2022/06/08 11:01:33;;;;;;;2.53;1.50;;;21.00;99.90;;;;;;5075438;28;20041;-47
2022/06/08 11:04:01;;;;;;;1.60;1.30;;;21.20;99.90;;;;;;5075281;28;20028;-47
2022/06/08 11:07:02;;;;;;;2.05;1.05;;;21.30;99.90;;;;;;5083342;28;20089;-47
2022/06/08 11:09:33;;;;;;;4.85;1.40;;;21.30;99.90;;;;;;5075180;28;20520;-47
2022/06/08 11:12:11;;;;;;;2.75;1.25;;;21.40;99.80;;;;;;5083320;28;20389;-48
2022/06/08 11:14:43;;;;;;;5.15;1.40;;;21.50;99.70;;;;;;5076381;28;20519;-47
2022/06/08 11:17:17;;;;;;;1.23;0.90;;;21.50;99.90;;;;;;5075453;28;20539;-46
2022/06/08 11:19:45;;;;;;;4.55;1.13;;;21.50;99.10;;;;;;5075102;28;20036;-47
2022/06/08 11:22:21;;;;;;;3.17;1.15;;;21.40;99.10;;;;;;5094207;28;20518;-47
2022/06/08 11:24:50;;;;;;;2.88;0.70;;;21.40;99.90;;;;;;5092670;28;20044;-47
2022/06/08 11:27:29;;;;;;;1.50;1.00;;;21.40;99.90;;;;;;5094818;28;20074;-47
2022/06/08 11:30:21;;;;;;;4.15;0.90;;;21.50;99.30;;;;;;5081808;28;20052;-48
2022/06/08 11:32:52;;;;;;;1.60;0.70;;;21.50;99.60;;;;;;5072949;28;20048;-47
2022/06/08 11:35:30;;;;;;;3.05;0.98;;;21.50;98.50;;;;;;5091691;28;20121;-48
2022/06/08 11:38:40;;;;;;;3.38;1.30;;;21.50;99.30;;;;;;5088996;28;20106;-47
2022/06/08 11:41:33;;;;;;;6.15;1.35;;;21.40;98.90;;;;;;5076791;28;20119;-47
2022/06/08 11:44:11;;;;;;;4.53;1.55;;;21.30;99.60;;;;;;5073681;28;20086;-47
2022/06/08 11:46:41;;;;;;;3.75;1.40;;;21.20;98.50;;;;;;5076661;28;20048;-47
2022/06/08 11:49:38;;;;;;;3.70;1.80;;;21.10;99.00;;;;;;5075194;28;20131;-46
2022/06/08 11:52:25;;;;;;;4.72;0.30;;;20.90;99.00;;;;;;5091967;28;20070;-47
2022/06/08 11:55:08;;;;;;;;;;;20.60;98.00;;;;;;5089815;28;20593;-49
2022/06/08 11:57:36;;;;;;;2.05;0.20;;;20.20;97.50;;;;;;5074919;28;19916;-46
2022/06/08 12:00:06;;;;;;;4.35;0.17;;;19.80;98.70;;;;;;5074996;28;20064;-46
2022/06/08 12:02:38;;;;;;;2.15;0.20;;;19.50;99.50;;;;;;5073511;28;20043;-46
2022/06/08 12:05:07;;;;;;;1.58;0.20;;;19.20;99.90;;;;;;5090848;28;20044;-46
2022/06/08 12:07:49;;;;;;;4.30;0.65;;;19.00;99.90;;;;;;5076187;28;20032;-45
2022/06/08 12:10:25;;;;;;;2.25;0.63;;;18.80;99.90;;;;;;5071674;28;20082;-46
2022/06/08 12:12:53;;;;;;;0.90;0.22;;;18.50;99.90;;;;;;5082566;28;20036;-47
2022/06/08 12:15:38;;;;;;;2.70;0.38;;;18.40;99.90;;;;;;5079022;28;20040;-46
2022/06/08 12:18:23;;;;;;;4.45;0.40;;;18.40;99.90;;;;;;5091300;28;20417;-46
2022/06/08 12:21:01;;;;;;;3.58;0.45;;;18.30;99.90;;;;;;5078570;28;20041;-46
2022/06/08 12:23:45;;;;;;;1.90;1.05;;;18.30;99.90;;;;;;5088333;28;20151;-47
2022/06/08 12:26:17;;;;;;;2.45;0.63;;;18.20;99.90;;;;;;5089854;28;20078;-46
2022/06/08 12:29:06;;;;;;;4.97;0.60;;;18.30;99.90;;;;;;5079833;28;20119;-46
2022/06/08 12:31:32;;;;;;;1.67;0.60;;;18.30;99.90;;;;;;5085354;28;20036;-46
2022/06/08 12:34:33;;;;;;;2.60;0.90;;;18.40;99.90;;;;;;5082246;28;20675;-47
2022/06/08 12:37:28;;;;;;;11.30;1.20;;;18.40;99.90;;;;;;5070187;28;20493;-45
2022/06/08 12:39:57;;;;;;;4.63;1.63;;;18.50;99.90;;;;;;5071667;28;20040;-46
2022/06/08 12:42:33;;;;;;;3.97;0.75;;;18.50;99.90;;;;;;5070181;28;20039;-47
2022/06/08 12:45:00;;;;;;;3.42;1.08;;;18.60;99.90;;;;;;5069330;28;20094;-47
2022/06/08 12:47:30;;;;;;;6.05;1.13;;;18.60;99.90;;;;;;5090762;28;20028;-46
2022/06/08 12:50:01;;;;;;;7.10;1.80;;;18.70;99.90;;;;;;5089469;28;20028;-46
2022/06/08 12:52:32;;;;;;;5.03;2.25;;;18.80;99.90;;;;;;5071727;28;20071;-47
2022/06/08 12:54:59;;;;;;;3.00;1.77;;;19.00;99.90;;;;;;5082495;28;20080;-45
2022/06/08 12:57:28;;;;;;;6.47;1.85;;;19.00;99.90;;;;;;5072074;28;20046;-47
2022/06/08 12:59:59;;;;;;;5.93;1.83;;;19.10;99.90;;;;;;5070621;28;20087;-45
2022/06/08 13:02:30;;;;;;;6.65;1.85;;;19.20;99.90;;;;;;5071175;28;20041;-46
2022/06/08 13:04:57;;;;;;;4.85;1.58;;;19.30;99.90;;;;;;5088460;28;20047;-46
2022/06/08 13:07:26;;;;;;;6.68;2.22;;;19.20;99.90;;;;;;5089242;28;20038;-46
2022/06/08 13:09:52;;;;;;;4.45;1.35;;;19.30;99.90;;;;;;5088595;28;20046;-46
2022/06/08 13:12:27;;;;;;;5.45;2.15;;;19.30;99.90;;;;;;5087575;28;20032;-46
2022/06/08 13:14:53;;;;;;;4.97;2.20;;;19.40;99.90;;;;;;5068566;28;20072;-47